Time;durP1;ratioP1;P1;durP2;ratioP2;P2;SDS_P1;SDS_P2;PMS_P1;PMS_P2;Temp;Humidity;BMP_temperature;BMP_pressure;BME280_temperature;BME280_humidity;BME280_pressure;Samples;Min_cycle;Max_cycle;Signal;HPM_P1;HPM_P2
2022/02/26 00:01:25;;;;;;;5.57;4.43;;;0.80;99.90;;;;;;5075608;28;20196;-71
2022/02/26 00:03:51;;;;;;;6.63;3.88;;;0.80;99.90;;;;;;5075593;28;20195;-71
2022/02/26 00:06:18;;;;;;;12.05;3.78;;;0.80;99.90;;;;;;5075847;28;20220;-72
2022/02/26 00:08:44;;;;;;;4.70;3.20;;;0.70;99.90;;;;;;5075257;28;20568;-71
2022/02/26 00:11:11;;;;;;;3.30;2.85;;;0.70;99.90;;;;;;5075930;28;20204;-71
2022/02/26 00:13:37;;;;;;;12.55;3.85;;;0.70;99.90;;;;;;5074977;28;20223;-71
2022/02/26 00:16:04;;;;;;;11.23;4.05;;;0.70;99.90;;;;;;5074848;28;20207;-71
2022/02/26 00:18:30;;;;;;;5.65;3.60;;;0.70;99.90;;;;;;5075798;28;20196;-71
2022/02/26 00:20:57;;;;;;;6.72;4.10;;;0.70;99.90;;;;;;5075081;28;20220;-71
2022/02/26 00:23:23;;;;;;;6.05;3.92;;;0.70;99.90;;;;;;5075229;28;20664;-71
2022/02/26 00:25:50;;;;;;;8.63;4.32;;;0.70;99.90;;;;;;5075198;28;20328;-71
2022/02/26 00:28:16;;;;;;;6.28;4.45;;;0.80;99.90;;;;;;5074162;28;20207;-71
2022/02/26 00:30:43;;;;;;;9.38;4.32;;;0.80;99.90;;;;;;5075448;28;20203;-71
2022/02/26 00:33:09;;;;;;;9.02;4.22;;;0.80;99.90;;;;;;5075269;28;20207;-71
2022/02/26 00:35:36;;;;;;;19.02;7.35;;;0.80;99.90;;;;;;5075295;28;20215;-72
2022/02/26 00:38:02;;;;;;;5.13;3.75;;;0.80;99.90;;;;;;5075388;28;20207;-75
2022/02/26 00:40:29;;;;;;;8.63;3.65;;;0.80;99.90;;;;;;5075267;28;20219;-71
2022/02/26 00:42:55;;;;;;;5.63;3.40;;;0.90;99.90;;;;;;5074860;28;20192;-71
2022/02/26 00:45:22;;;;;;;6.55;4.45;;;0.80;99.90;;;;;;5075119;28;20204;-71
2022/02/26 00:47:49;;;;;;;21.02;9.65;;;0.80;99.90;;;;;;5075167;28;20569;-71
2022/02/26 00:50:17;;;;;;;8.75;6.20;;;0.90;99.90;;;;;;5075068;28;20200;-71
2022/02/26 00:52:43;;;;;;;7.50;5.10;;;0.90;99.90;;;;;;5074544;28;20204;-71
2022/02/26 00:55:10;;;;;;;8.73;4.90;;;0.90;99.90;;;;;;5074684;28;20663;-71
2022/02/26 00:57:37;;;;;;;9.88;5.20;;;0.90;99.90;;;;;;5073279;28;20210;-71
2022/02/26 01:00:06;;;;;;;14.25;6.88;;;0.90;99.90;;;;;;5074285;28;20695;-71
2022/02/26 01:02:33;;;;;;;10.23;6.32;;;0.80;99.90;;;;;;5074646;28;20250;-71
2022/02/26 01:05:00;;;;;;;23.77;10.55;;;0.80;99.90;;;;;;5074306;28;20232;-71
2022/02/26 01:07:27;;;;;;;13.50;6.30;;;0.80;99.90;;;;;;5074847;28;20220;-71
2022/02/26 01:09:53;;;;;;;9.43;6.25;;;0.80;99.90;;;;;;5074166;28;20227;-71
2022/02/26 01:12:20;;;;;;;8.27;4.00;;;0.80;99.90;;;;;;5074475;28;20199;-71
2022/02/26 01:14:46;;;;;;;9.75;4.78;;;0.80;99.90;;;;;;5074309;28;20199;-71
2022/02/26 01:17:13;;;;;;;6.28;3.58;;;0.80;99.90;;;;;;5074110;28;20220;-71
2022/02/26 01:19:40;;;;;;;11.50;4.70;;;0.80;99.90;;;;;;5074240;28;20224;-71
2022/02/26 01:22:07;;;;;;;9.93;4.50;;;0.60;99.90;;;;;;5073840;28;20204;-71
2022/02/26 01:24:34;;;;;;;8.98;4.13;;;0.50;99.90;;;;;;5073841;28;20208;-71
2022/02/26 01:27:01;;;;;;;8.50;4.63;;;0.40;99.90;;;;;;5073584;28;20207;-71
2022/02/26 01:29:28;;;;;;;12.98;4.60;;;0.30;99.90;;;;;;5073719;28;20668;-71
2022/02/26 01:31:55;;;;;;;9.93;5.00;;;0.30;99.90;;;;;;5073768;28;20605;-71
2022/02/26 01:34:22;;;;;;;12.70;4.75;;;0.20;99.90;;;;;;5073843;28;20246;-71
2022/02/26 01:36:48;;;;;;;14.55;6.40;;;0.20;99.90;;;;;;5072368;28;20200;-71
2022/02/26 01:39:18;;;;;;;14.15;4.95;;;0.20;99.90;;;;;;5073459;28;20652;-71
2022/02/26 01:41:45;;;;;;;7.57;4.60;;;0.20;99.90;;;;;;5073686;28;20245;-71
2022/02/26 01:44:11;;;;;;;7.57;4.25;;;0.20;99.90;;;;;;5073580;28;20675;-71
2022/02/26 01:46:38;;;;;;;11.30;4.70;;;0.10;99.90;;;;;;5073729;28;20192;-71
2022/02/26 01:49:05;;;;;;;8.65;4.65;;;0.10;99.90;;;;;;5073552;28;20204;-71
2022/02/26 01:51:32;;;;;;;9.18;4.82;;;0.10;99.90;;;;;;5073820;28;20608;-71
2022/02/26 01:53:58;;;;;;;10.15;4.63;;;0.00;99.90;;;;;;5073300;28;20208;-71
2022/02/26 01:56:24;;;;;;;12.48;4.93;;;0.00;99.90;;;;;;5073554;28;20212;-71
2022/02/26 01:58:51;;;;;;;7.03;4.63;;;0.00;99.90;;;;;;5073716;28;20468;-71
2022/02/26 02:01:17;;;;;;;11.80;4.65;;;0.10;99.90;;;;;;5073789;28;20747;-71
2022/02/26 02:03:44;;;;;;;6.75;4.13;;;0.00;99.90;;;;;;5072164;28;20207;-71
2022/02/26 02:06:12;;;;;;;26.95;14.95;;;0.00;99.90;;;;;;5073564;28;20227;-71
2022/02/26 02:08:39;;;;;;;16.08;7.70;;;0.00;99.90;;;;;;5071936;28;20214;-71
2022/02/26 02:11:06;;;;;;;15.45;7.97;;;0.00;99.90;;;;;;5073328;28;20222;-71
2022/02/26 02:13:34;;;;;;;13.88;6.60;;;0.00;99.90;;;;;;5073534;28;20204;-71
2022/02/26 02:16:01;;;;;;;9.73;6.45;;;0.00;99.90;;;;;;5072074;28;20208;-71
2022/02/26 02:18:27;;;;;;;9.07;5.65;;;0.00;99.90;;;;;;5073498;28;20554;-71
2022/02/26 02:20:55;;;;;;;12.85;5.60;;;0.00;99.90;;;;;;5073078;28;20227;-70
2022/02/26 02:23:22;;;;;;;12.48;5.40;;;0.00;99.90;;;;;;5073152;28;20575;-70
2022/02/26 02:25:50;;;;;;;7.05;5.25;;;0.00;99.90;;;;;;5073360;28;20253;-70
2022/02/26 02:28:17;;;;;;;7.68;4.65;;;-0.10;99.90;;;;;;5072096;28;20192;-70
2022/02/26 02:30:44;;;;;;;8.05;4.80;;;-0.20;99.90;;;;;;5071806;28;20269;-71
2022/02/26 02:33:10;;;;;;;8.20;4.30;;;-0.20;99.90;;;;;;5071617;28;20204;-71
2022/02/26 02:35:41;;;;;;;7.97;3.88;;;-0.20;99.90;;;;;;5073496;28;20207;-71
2022/02/26 02:38:14;;;;;;;4.97;4.22;;;-0.20;99.90;;;;;;5072662;28;20215;-72
2022/02/26 02:40:45;;;;;;;10.25;4.30;;;-0.20;99.90;;;;;;5073298;28;20268;-71
2022/02/26 02:43:12;;;;;;;5.40;4.20;;;-0.30;99.90;;;;;;5072940;28;20642;-71
2022/02/26 02:45:40;;;;;;;9.23;4.50;;;-0.30;99.90;;;;;;5073161;28;20196;-71
2022/02/26 02:48:07;;;;;;;7.05;4.55;;;-0.40;99.90;;;;;;5073092;28;20211;-71
2022/02/26 02:50:33;;;;;;;10.27;7.05;;;-0.40;99.90;;;;;;5072958;28;20625;-72
2022/02/26 02:53:00;;;;;;;9.05;5.85;;;-0.40;99.90;;;;;;5073222;28;20230;-72
2022/02/26 02:55:26;;;;;;;8.77;4.80;;;-0.50;99.90;;;;;;5073089;28;20257;-72
2022/02/26 02:57:55;;;;;;;12.30;4.95;;;-0.50;99.90;;;;;;5072759;28;20207;-71
2022/02/26 03:00:21;;;;;;;7.18;4.30;;;-0.60;99.90;;;;;;5073151;28;20264;-71
2022/02/26 03:02:50;;;;;;;9.23;5.22;;;-0.60;99.90;;;;;;5073175;28;20204;-71
2022/02/26 03:05:18;;;;;;;6.80;4.70;;;-0.70;99.90;;;;;;5073132;28;20232;-71
2022/02/26 03:07:45;;;;;;;7.25;4.38;;;-0.70;99.90;;;;;;5073119;28;20253;-71
2022/02/26 03:10:11;;;;;;;11.35;4.57;;;-0.80;99.90;;;;;;5072820;28;20626;-71
2022/02/26 03:12:38;;;;;;;7.03;5.25;;;-0.80;99.90;;;;;;5073180;28;20204;-71
2022/02/26 03:15:05;;;;;;;14.27;5.45;;;-0.80;99.90;;;;;;5071534;28;20200;-70
2022/02/26 03:17:32;;;;;;;9.18;5.03;;;-0.70;99.90;;;;;;5072860;28;20690;-71
2022/02/26 03:19:58;;;;;;;6.28;5.15;;;-0.80;99.90;;;;;;5073237;28;20227;-71
2022/02/26 03:22:25;;;;;;;13.70;5.82;;;-0.70;99.90;;;;;;5071801;28;20208;-71
2022/02/26 03:24:51;;;;;;;12.55;4.90;;;-0.70;99.90;;;;;;5072978;28;20641;-71
2022/02/26 03:27:18;;;;;;;8.77;4.88;;;-0.60;99.90;;;;;;5072999;28;20204;-71
2022/02/26 03:29:44;;;;;;;10.85;6.10;;;-0.50;99.90;;;;;;5071815;28;20238;-71
2022/02/26 03:32:11;;;;;;;13.10;5.60;;;-0.50;99.90;;;;;;5072860;28;20196;-71
2022/02/26 03:34:38;;;;;;;13.15;7.05;;;-0.40;99.90;;;;;;5072746;28;20199;-71
2022/02/26 03:37:05;;;;;;;16.30;5.63;;;-0.40;99.90;;;;;;5072650;28;20219;-71
2022/02/26 03:39:32;;;;;;;6.82;5.00;;;-0.50;99.90;;;;;;5072804;28;20195;-71
2022/02/26 03:42:00;;;;;;;14.38;5.72;;;-0.50;99.90;;;;;;5072746;28;20235;-71
2022/02/26 03:44:26;;;;;;;9.38;5.45;;;-0.50;99.90;;;;;;5072987;28;20200;-72
2022/02/26 03:46:52;;;;;;;12.50;5.72;;;-0.40;99.90;;;;;;5072691;28;20200;-72
2022/02/26 03:49:19;;;;;;;11.95;6.75;;;-0.40;99.90;;;;;;5073909;28;20200;-72
2022/02/26 03:51:46;;;;;;;25.70;14.40;;;-0.40;99.90;;;;;;5075824;28;20614;-72
2022/02/26 03:54:12;;;;;;;6.78;5.78;;;-0.30;99.90;;;;;;5075815;28;20200;-72
2022/02/26 03:56:38;;;;;;;10.65;5.50;;;-0.30;99.90;;;;;;5076117;28;20200;-72
2022/02/26 03:59:05;;;;;;;13.20;6.45;;;-0.30;99.90;;;;;;5076049;28;20722;-72
2022/02/26 04:01:31;;;;;;;9.05;4.78;;;-0.30;99.90;;;;;;5075805;28;20285;-72
2022/02/26 04:03:58;;;;;;;14.23;5.72;;;-0.30;99.90;;;;;;5075555;28;20598;-72
2022/02/26 04:06:25;;;;;;;9.45;5.43;;;-0.40;99.90;;;;;;5075890;28;20220;-72
2022/02/26 04:08:52;;;;;;;12.65;5.25;;;-0.50;99.90;;;;;;5076105;28;20544;-71
2022/02/26 04:11:18;;;;;;;12.95;5.15;;;-0.40;99.90;;;;;;5075849;28;20196;-70
2022/02/26 04:13:45;;;;;;;8.25;5.97;;;-0.40;99.90;;;;;;5075738;28;20208;-71
2022/02/26 04:16:11;;;;;;;5.72;4.70;;;-0.40;99.90;;;;;;5075741;28;20546;-71
2022/02/26 04:18:40;;;;;;;10.27;4.85;;;-0.30;99.90;;;;;;5075701;28;20200;-71
2022/02/26 04:21:07;;;;;;;8.73;6.10;;;-0.40;99.90;;;;;;5075183;28;20223;-71
2022/02/26 04:23:33;;;;;;;6.53;4.75;;;-0.40;99.90;;;;;;5075165;28;20624;-71
2022/02/26 04:26:00;;;;;;;10.57;6.00;;;-0.40;99.90;;;;;;5075453;28;20208;-71
2022/02/26 04:28:26;;;;;;;4.95;4.45;;;-0.40;99.90;;;;;;5075257;28;20547;-71
2022/02/26 04:30:52;;;;;;;9.13;5.97;;;-0.30;99.90;;;;;;5075319;28;20734;-70
2022/02/26 04:33:20;;;;;;;7.18;5.28;;;-0.30;99.90;;;;;;5075295;28;20241;-73
2022/02/26 04:35:47;;;;;;;9.88;5.15;;;-0.20;99.90;;;;;;5075222;28;20204;-71
2022/02/26 04:38:13;;;;;;;7.45;5.25;;;-0.20;99.90;;;;;;5074873;28;20656;-71
2022/02/26 04:40:40;;;;;;;10.90;5.80;;;-0.10;99.90;;;;;;5074832;28;20227;-71
2022/02/26 04:43:06;;;;;;;9.88;5.45;;;-0.10;99.90;;;;;;5075338;28;20198;-71
2022/02/26 04:45:33;;;;;;;5.65;4.90;;;-0.20;99.90;;;;;;5075351;28;20559;-71
2022/02/26 04:48:00;;;;;;;7.45;6.15;;;-0.20;99.90;;;;;;5074825;28;20655;-71
2022/02/26 04:50:26;;;;;;;8.85;5.53;;;-0.20;99.90;;;;;;5075149;28;20273;-71
2022/02/26 04:52:53;;;;;;;6.88;5.07;;;-0.20;99.90;;;;;;5075197;28;20203;-71
2022/02/26 04:55:19;;;;;;;13.80;6.10;;;-0.20;99.90;;;;;;5073597;28;20690;-71
2022/02/26 04:57:47;;;;;;;7.57;5.80;;;-0.20;99.90;;;;;;5074736;28;20699;-71
2022/02/26 05:00:14;;;;;;;17.35;6.00;;;-0.10;99.90;;;;;;5072940;28;20228;-71
2022/02/26 05:02:41;;;;;;;11.95;6.45;;;0.00;99.90;;;;;;5075213;28;20199;-71
2022/02/26 05:05:08;;;;;;;8.25;5.70;;;0.00;99.90;;;;;;5074412;28;20228;-71
2022/02/26 05:07:35;;;;;;;10.20;6.30;;;0.10;99.90;;;;;;5074507;28;20234;-71
2022/02/26 05:10:01;;;;;;;13.23;5.95;;;0.10;99.90;;;;;;5074665;28;20200;-71
2022/02/26 05:12:28;;;;;;;11.15;6.50;;;0.20;99.90;;;;;;5074720;28;20200;-71
2022/02/26 05:14:55;;;;;;;7.53;6.15;;;0.10;99.90;;;;;;5073124;28;20283;-71
2022/02/26 05:17:22;;;;;;;7.95;5.47;;;0.10;99.90;;;;;;5073237;28;20200;-71
2022/02/26 05:19:48;;;;;;;16.48;6.97;;;0.00;99.90;;;;;;5073555;28;20203;-71
2022/02/26 05:22:15;;;;;;;10.73;6.00;;;0.00;99.90;;;;;;5074411;28;20338;-71
2022/02/26 05:24:41;;;;;;;13.15;6.82;;;0.00;99.90;;;;;;5074169;28;20204;-71
2022/02/26 05:27:09;;;;;;;12.23;6.28;;;0.00;99.90;;;;;;5073169;28;20200;-71
2022/02/26 05:29:35;;;;;;;10.80;5.90;;;-0.10;99.90;;;;;;5072661;28;20253;-71
2022/02/26 05:32:02;;;;;;;10.60;5.90;;;-0.10;99.90;;;;;;5074370;28;20600;-72
2022/02/26 05:34:28;;;;;;;10.68;6.45;;;-0.20;99.90;;;;;;5073938;28;20265;-71
2022/02/26 05:36:55;;;;;;;10.30;6.50;;;-0.20;99.90;;;;;;5072942;28;20204;-71
2022/02/26 05:39:21;;;;;;;10.90;6.38;;;-0.20;99.90;;;;;;5073725;28;20200;-71
2022/02/26 05:41:48;;;;;;;9.48;6.03;;;-0.30;99.90;;;;;;5073960;28;20222;-71
2022/02/26 05:44:14;;;;;;;8.18;7.07;;;-0.40;99.90;;;;;;5073687;28;20663;-71
2022/02/26 05:46:41;;;;;;;19.48;5.93;;;-0.40;99.90;;;;;;5073584;28;20196;-71
2022/02/26 05:49:07;;;;;;;9.80;6.57;;;-0.40;99.90;;;;;;5073387;28;20566;-71
2022/02/26 05:51:33;;;;;;;13.85;6.82;;;-0.50;99.90;;;;;;5073667;28;20199;-71
2022/02/26 05:54:00;;;;;;;12.75;6.35;;;-0.50;99.90;;;;;;5073632;28;20631;-71
2022/02/26 05:56:26;;;;;;;23.88;7.18;;;-0.50;99.90;;;;;;5072184;28;20568;-71
2022/02/26 05:58:53;;;;;;;8.60;6.15;;;-0.50;99.90;;;;;;5073550;28;20196;-71
2022/02/26 06:01:19;;;;;;;12.93;6.45;;;-0.50;99.90;;;;;;5072008;28;20284;-71
2022/02/26 06:03:45;;;;;;;11.00;6.38;;;-0.50;99.90;;;;;;5073793;28;20614;-71
2022/02/26 06:06:12;;;;;;;16.42;6.68;;;-0.50;99.90;;;;;;5073234;28;20664;-71
2022/02/26 06:08:38;;;;;;;12.18;6.20;;;-0.50;99.90;;;;;;5073299;28;20249;-71
2022/02/26 06:11:05;;;;;;;12.70;7.32;;;-0.50;99.90;;;;;;5073315;28;20200;-71
2022/02/26 06:13:31;;;;;;;15.60;6.10;;;-0.60;99.90;;;;;;5072764;28;20544;-71
2022/02/26 06:15:57;;;;;;;11.48;6.30;;;-0.60;99.90;;;;;;5073004;28;20261;-71
2022/02/26 06:18:24;;;;;;;10.50;6.28;;;-0.70;99.90;;;;;;5073304;28;20753;-71
2022/02/26 06:20:50;;;;;;;10.27;5.90;;;-0.60;99.90;;;;;;5073237;28;20262;-71
2022/02/26 06:23:17;;;;;;;8.15;6.00;;;-0.60;99.90;;;;;;5073287;28;20196;-71
2022/02/26 06:25:43;;;;;;;9.65;6.22;;;-0.60;99.90;;;;;;5073347;28;20245;-71
2022/02/26 06:28:13;;;;;;;9.30;6.28;;;-0.70;99.90;;;;;;5073916;28;20204;-71
2022/02/26 06:30:40;;;;;;;10.88;6.25;;;-0.70;99.90;;;;;;5073102;28;20203;-71
2022/02/26 06:33:06;;;;;;;12.00;6.68;;;-0.70;99.90;;;;;;5073320;28;20204;-71
2022/02/26 06:35:33;;;;;;;12.98;7.95;;;-0.60;99.90;;;;;;5073284;28;20204;-71
2022/02/26 06:37:59;;;;;;;13.93;7.20;;;-0.50;99.90;;;;;;5073264;28;20651;-72
2022/02/26 06:40:25;;;;;;;10.88;7.50;;;-0.50;99.90;;;;;;5072926;28;20623;-72
2022/02/26 06:42:52;;;;;;;12.57;7.03;;;-0.40;99.90;;;;;;5073273;28;20253;-72
2022/02/26 06:45:18;;;;;;;17.75;8.45;;;-0.40;99.90;;;;;;5073022;28;20571;-72
2022/02/26 06:47:45;;;;;;;15.98;7.00;;;-0.30;99.90;;;;;;5071537;28;20196;-72
2022/02/26 06:50:11;;;;;;;20.17;8.43;;;-0.20;99.90;;;;;;5072829;28;20237;-72
2022/02/26 06:52:38;;;;;;;15.57;7.80;;;-0.20;99.90;;;;;;5072989;28;20200;-72
2022/02/26 06:55:05;;;;;;;11.27;7.70;;;-0.10;99.90;;;;;;5073020;28;20238;-72
2022/02/26 06:57:31;;;;;;;15.05;7.53;;;0.00;99.90;;;;;;5072553;28;20568;-71
2022/02/26 06:59:57;;;;;;;14.13;6.95;;;0.10;99.90;;;;;;5073057;28;20207;-71
2022/02/26 07:02:24;;;;;;;15.05;7.53;;;0.20;99.90;;;;;;5072945;28;20285;-71
2022/02/26 07:04:50;;;;;;;8.75;7.10;;;0.20;99.90;;;;;;5072539;28;20780;-71
2022/02/26 07:07:17;;;;;;;10.30;7.85;;;0.20;99.90;;;;;;5072593;28;20227;-71
2022/02/26 07:09:46;;;;;;;10.80;8.05;;;0.30;99.90;;;;;;5072696;28;20200;-71
2022/02/26 07:12:12;;;;;;;14.57;7.85;;;0.30;99.90;;;;;;5072850;28;20211;-71
2022/02/26 07:14:39;;;;;;;12.70;6.07;;;0.40;99.90;;;;;;5071375;28;20226;-71
2022/02/26 07:17:06;;;;;;;14.27;6.78;;;0.30;99.90;;;;;;5072966;28;20204;-71
2022/02/26 07:19:32;;;;;;;9.95;8.00;;;0.40;99.90;;;;;;5072612;28;20208;-71
2022/02/26 07:21:59;;;;;;;17.00;6.30;;;0.50;99.90;;;;;;5072506;28;20651;-71
2022/02/26 07:24:27;;;;;;;13.13;6.80;;;0.40;99.90;;;;;;5074624;28;20198;-71
2022/02/26 07:26:53;;;;;;;10.07;6.10;;;0.50;99.90;;;;;;5076734;28;20196;-71
2022/02/26 07:29:20;;;;;;;19.30;7.75;;;0.50;99.90;;;;;;5076162;28;20268;-71
2022/02/26 07:31:47;;;;;;;13.60;11.50;;;0.50;99.90;;;;;;5075120;28;20763;-71
2022/02/26 07:34:14;;;;;;;17.63;13.65;;;0.60;99.90;;;;;;5076248;28;20694;-71
2022/02/26 07:36:40;;;;;;;17.55;9.95;;;0.70;99.90;;;;;;5076535;28;20207;-71
2022/02/26 07:39:07;;;;;;;15.38;9.40;;;0.70;99.90;;;;;;5076011;28;20545;-71
2022/02/26 07:41:34;;;;;;;12.80;8.95;;;0.80;99.90;;;;;;5075792;28;20756;-71
2022/02/26 07:44:00;;;;;;;12.10;7.70;;;0.90;99.90;;;;;;5076432;28;20208;-71
2022/02/26 07:46:27;;;;;;;14.93;8.32;;;0.90;99.90;;;;;;5076052;28;20222;-71
2022/02/26 07:48:53;;;;;;;8.52;7.25;;;0.90;99.90;;;;;;5076405;28;20200;-70
2022/02/26 07:51:20;;;;;;;14.05;8.85;;;0.90;99.90;;;;;;5075914;28;20211;-71
2022/02/26 07:53:46;;;;;;;13.15;7.25;;;0.90;99.90;;;;;;5075738;28;20671;-71
2022/02/26 07:56:13;;;;;;;10.43;7.45;;;1.00;99.90;;;;;;5075850;28;20200;-71
2022/02/26 07:58:39;;;;;;;26.10;8.82;;;0.90;99.90;;;;;;5075607;28;20548;-71
2022/02/26 08:01:06;;;;;;;24.15;11.23;;;1.00;99.90;;;;;;5075775;28;20675;-70
2022/02/26 08:03:35;;;;;;;20.88;9.30;;;1.10;99.90;;;;;;5075939;28;20204;-72
2022/02/26 08:06:01;;;;;;;27.42;9.65;;;1.20;99.90;;;;;;5075703;28;20236;-72
2022/02/26 08:08:28;;;;;;;20.80;7.82;;;1.30;99.90;;;;;;5075922;28;20191;-72
2022/02/26 08:10:54;;;;;;;18.30;9.70;;;1.30;99.90;;;;;;5075679;28;20210;-72
2022/02/26 08:13:20;;;;;;;21.88;10.10;;;1.40;99.90;;;;;;5075426;28;20203;-71
2022/02/26 08:15:47;;;;;;;13.88;8.18;;;1.60;99.90;;;;;;5075298;28;20200;-71
2022/02/26 08:18:15;;;;;;;22.00;8.70;;;1.70;99.90;;;;;;5075518;28;20204;-71
2022/02/26 08:20:41;;;;;;;22.73;8.77;;;1.80;99.90;;;;;;5075457;28;20203;-71
2022/02/26 08:23:08;;;;;;;23.15;10.95;;;2.10;99.90;;;;;;5075628;28;20196;-71
2022/02/26 08:25:34;;;;;;;39.90;12.55;;;2.20;99.90;;;;;;5075107;28;20204;-71
2022/02/26 08:28:01;;;;;;;28.50;10.38;;;2.40;99.90;;;;;;5075179;28;20200;-71
2022/02/26 08:30:27;;;;;;;22.38;9.73;;;2.60;99.90;;;;;;5075222;28;20196;-71
2022/02/26 08:32:54;;;;;;;18.88;9.13;;;2.70;99.90;;;;;;5075453;28;20200;-71
2022/02/26 08:35:20;;;;;;;13.98;7.00;;;2.80;99.90;;;;;;5074438;28;20222;-71
2022/02/26 08:37:47;;;;;;;10.77;6.20;;;2.90;99.90;;;;;;5074962;28;20545;-71
2022/02/26 08:40:14;;;;;;;19.85;6.03;;;3.10;99.90;;;;;;5075184;28;20207;-71
2022/02/26 08:42:41;;;;;;;12.05;5.93;;;3.40;99.90;;;;;;5075142;28;20224;-71
2022/02/26 08:45:08;;;;;;;13.55;6.68;;;3.60;99.90;;;;;;5074931;28;20603;-71
2022/02/26 08:47:35;;;;;;;14.77;6.57;;;3.50;99.90;;;;;;5075030;28;20211;-70
2022/02/26 08:50:04;;;;;;;13.88;7.30;;;3.50;99.90;;;;;;5074998;28;20200;-71
2022/02/26 08:52:30;;;;;;;10.45;8.00;;;3.60;99.90;;;;;;5074595;28;20659;-71
2022/02/26 08:54:57;;;;;;;17.77;8.80;;;3.80;99.90;;;;;;5074650;28;20212;-71
2022/02/26 08:57:23;;;;;;;17.65;8.15;;;4.00;99.90;;;;;;5074868;28;20222;-71
2022/02/26 08:59:49;;;;;;;16.70;7.53;;;4.10;99.90;;;;;;5074697;28;20249;-71
2022/02/26 09:02:16;;;;;;;16.58;7.05;;;4.20;99.90;;;;;;5074319;28;20273;-71
2022/02/26 09:04:43;;;;;;;14.80;7.63;;;4.60;99.90;;;;;;5074332;28;20273;-72
2022/02/26 09:07:09;;;;;;;20.55;6.05;;;4.70;99.90;;;;;;5073206;28;20241;-71
2022/02/26 09:09:36;;;;;;;19.23;7.07;;;4.70;99.90;;;;;;5075160;28;20607;-71
2022/02/26 09:12:03;;;;;;;15.98;6.28;;;4.70;99.90;;;;;;5074520;28;20206;-70
2022/02/26 09:14:30;;;;;;;14.82;6.43;;;4.50;99.90;;;;;;5074240;28;20265;-71
2022/02/26 09:16:56;;;;;;;17.75;6.60;;;4.60;99.90;;;;;;5074007;28;20567;-71
2022/02/26 09:19:22;;;;;;;15.00;6.47;;;4.60;99.90;;;;;;5074703;28;20605;-71
2022/02/26 09:21:49;;;;;;;18.05;6.88;;;4.70;99.90;;;;;;5074107;28;20224;-71
2022/02/26 09:24:16;;;;;;;13.80;6.53;;;4.90;99.90;;;;;;5074111;28;20200;-70
2022/02/26 09:26:42;;;;;;;8.35;6.30;;;4.90;99.90;;;;;;5074298;28;20196;-70
2022/02/26 09:29:09;;;;;;;17.20;7.22;;;5.00;99.90;;;;;;5074166;28;20200;-70
2022/02/26 09:31:40;;;;;;;13.20;7.30;;;5.00;99.90;;;;;;5074109;28;20265;-71
2022/02/26 09:34:09;;;;;;;15.05;8.02;;;5.10;99.90;;;;;;5072160;28;20202;-71
2022/02/26 09:36:36;;;;;;;20.38;7.40;;;5.30;99.90;;;;;;5073940;28;20204;-70
2022/02/26 09:39:03;;;;;;;18.77;7.35;;;5.30;99.90;;;;;;5073940;28;20203;-70
2022/02/26 09:41:30;;;;;;;25.95;6.72;;;5.40;99.90;;;;;;5073985;28;20212;-70
2022/02/26 09:43:57;;;;;;;20.13;7.13;;;5.50;99.90;;;;;;5072314;28;20215;-71
2022/02/26 09:46:23;;;;;;;13.43;6.60;;;5.50;99.90;;;;;;5073768;28;20192;-71
2022/02/26 09:48:49;;;;;;;13.95;7.10;;;5.60;99.90;;;;;;5073469;28;20569;-71
2022/02/26 09:51:16;;;;;;;22.75;7.40;;;5.70;99.90;;;;;;5073704;28;20192;-71
2022/02/26 09:53:43;;;;;;;23.70;6.88;;;5.70;99.90;;;;;;5073302;28;20203;-70
2022/02/26 09:56:09;;;;;;;20.73;6.28;;;5.60;99.90;;;;;;5073382;28;20199;-70
2022/02/26 09:58:36;;;;;;;16.08;7.28;;;5.60;99.90;;;;;;5073402;28;20655;-71
2022/02/26 10:01:03;;;;;;;10.48;5.35;;;5.40;99.90;;;;;;5073146;28;20265;-70
2022/02/26 10:03:32;;;;;;;12.13;5.75;;;5.30;99.90;;;;;;5073195;28;20199;-70
2022/02/26 10:06:22;;;;;;;21.77;5.90;;;5.20;99.90;;;;;;5071824;28;20236;-70
2022/02/26 10:08:51;;;;;;;18.15;6.53;;;5.30;99.90;;;;;;5073241;28;20180;-71
2022/02/26 10:11:20;;;;;;;17.50;7.07;;;5.40;99.90;;;;;;5073380;28;20203;-71
2022/02/26 10:13:47;;;;;;;11.85;6.30;;;5.50;99.90;;;;;;5073532;28;20195;-71
2022/02/26 10:16:14;;;;;;;16.35;6.55;;;5.70;99.90;;;;;;5073387;28;20195;-71
2022/02/26 10:18:52;;;;;;;13.85;6.50;;;5.70;99.90;;;;;;5073120;28;20245;-71
2022/02/26 10:21:30;;;;;;;44.45;18.63;;;5.80;99.90;;;;;;5073233;28;20192;-71
2022/02/26 10:23:56;;;;;;;19.55;8.93;;;6.10;99.90;;;;;;5073251;28;20199;-71
2022/02/26 10:26:27;;;;;;;17.58;8.48;;;6.20;99.90;;;;;;5073291;28;20644;-71
2022/02/26 10:29:11;;;;;;;18.85;6.57;;;6.20;99.90;;;;;;5073276;28;20207;-71
2022/02/26 10:31:46;;;;;;;12.48;4.40;;;6.20;99.90;;;;;;5072987;28;20650;-71
2022/02/26 10:34:41;;;;;;;12.43;4.70;;;6.20;99.90;;;;;;5073280;28;20206;-71
2022/02/26 10:37:16;;;;;;;15.57;5.25;;;6.10;99.90;;;;;;5072997;28;20693;-71
2022/02/26 10:39:46;;;;;;;14.95;5.50;;;6.10;99.90;;;;;;5072890;28;20583;-71
2022/02/26 10:42:20;;;;;;;13.75;4.85;;;6.30;99.90;;;;;;5073024;28;20215;-71
2022/02/26 10:45:02;;;;;;;10.70;5.07;;;6.30;99.90;;;;;;5072901;28;20200;-71
2022/02/26 10:47:31;;;;;;;11.60;4.55;;;6.20;99.90;;;;;;5073545;28;20180;-71
2022/02/26 10:49:58;;;;;;;12.88;5.18;;;6.10;99.90;;;;;;5073432;28;20203;-71
2022/02/26 10:52:30;;;;;;;16.98;7.13;;;6.00;99.90;;;;;;5073335;28;20207;-71
2022/02/26 10:54:58;;;;;;;11.73;5.00;;;6.00;99.90;;;;;;5073020;28;20199;-71
2022/02/26 10:57:32;;;;;;;15.00;5.40;;;6.10;99.90;;;;;;5073243;28;20204;-71
2022/02/26 10:59:58;;;;;;;15.10;4.43;;;6.20;99.90;;;;;;5076167;28;20215;-71
2022/02/26 11:02:29;;;;;;;16.90;4.47;;;6.40;99.90;;;;;;5076970;28;20215;-71
2022/02/26 11:04:57;;;;;;;9.05;4.20;;;6.50;99.90;;;;;;5076830;28;20243;-71
2022/02/26 11:07:24;;;;;;;12.32;4.43;;;6.70;99.90;;;;;;5075922;28;20265;-71
2022/02/26 11:09:54;;;;;;;13.02;4.28;;;6.70;99.90;;;;;;5076758;28;20241;-71
2022/02/26 11:12:27;;;;;;;9.27;5.10;;;6.70;99.90;;;;;;5076468;28;20655;-71
2022/02/26 11:14:59;;;;;;;15.88;5.22;;;6.80;99.90;;;;;;5076917;28;20184;-71
2022/02/26 11:17:28;;;;;;;9.85;4.03;;;7.00;99.90;;;;;;5075153;28;20207;-71
2022/02/26 11:20:05;;;;;;;6.45;3.83;;;7.00;99.90;;;;;;5076918;28;20310;-70
2022/02/26 11:22:31;;;;;;;12.23;3.67;;;6.70;99.90;;;;;;5076223;28;20215;-71
2022/02/26 11:24:58;;;;;;;12.15;3.70;;;6.70;99.90;;;;;;5076602;28;20203;-71
2022/02/26 11:27:25;;;;;;;13.32;4.72;;;6.70;99.90;;;;;;5075048;28;20200;-71
2022/02/26 11:29:53;;;;;;;9.65;4.90;;;6.70;99.90;;;;;;5076858;28;20219;-71
2022/02/26 11:32:21;;;;;;;12.77;5.18;;;7.70;99.90;;;;;;5075972;28;20543;-71
2022/02/26 11:34:48;;;;;;;10.63;6.07;;;8.60;99.90;;;;;;5076071;28;20663;-71
2022/02/26 11:37:17;;;;;;;6.22;5.55;;;9.30;99.90;;;;;;5076118;28;20215;-71
2022/02/26 11:39:49;;;;;;;14.57;6.45;;;9.30;99.90;;;;;;5076316;28;20196;-72
2022/02/26 11:42:19;;;;;;;12.25;7.38;;;9.00;99.90;;;;;;5075723;28;20215;-71
2022/02/26 11:44:57;;;;;;;6.93;5.10;;;8.80;99.90;;;;;;5075936;28;20655;-71
2022/02/26 11:47:32;;;;;;;7.70;6.97;;;9.30;99.90;;;;;;5076215;28;20188;-72
2022/02/26 11:50:29;;;;;;;9.82;5.80;;;9.50;99.90;;;;;;5075940;28;20180;-71
2022/02/26 11:53:11;;;;;;;10.90;6.85;;;8.90;99.90;;;;;;5076315;28;20257;-71
2022/02/26 11:55:44;;;;;;;8.85;6.63;;;8.10;99.90;;;;;;5075820;28;20596;-71
2022/02/26 11:58:26;;;;;;;18.98;7.25;;;8.10;99.90;;;;;;5075637;28;20208;-71
2022/02/26 12:00:57;;;;;;;10.55;5.68;;;8.20;99.90;;;;;;5076045;28;20581;-71
2022/02/26 12:03:26;;;;;;;10.05;7.30;;;8.20;99.90;;;;;;5075912;28;20215;-71
2022/02/26 12:05:56;;;;;;;13.25;5.68;;;8.30;99.90;;;;;;5075470;28;20244;-71
2022/02/26 12:08:44;;;;;;;10.05;6.30;;;7.90;99.90;;;;;;5074165;28;20207;-71
2022/02/26 12:11:23;;;;;;;13.20;5.78;;;7.70;99.90;;;;;;5075907;28;20185;-72
2022/02/26 12:13:57;;;;;;;5.20;4.80;;;7.40;99.90;;;;;;5075830;28;20237;-70
2022/02/26 12:16:42;;;;;;;10.77;5.85;;;7.10;99.90;;;;;;5075635;28;20203;-70
2022/02/26 12:19:15;;;;;;;11.23;6.50;;;7.00;99.90;;;;;;5075952;28;20206;-70
2022/02/26 12:21:50;;;;;;;8.45;6.47;;;7.90;99.90;;;;;;5075643;28;20191;-70
2022/02/26 12:24:16;;;;;;;7.25;6.20;;;9.60;99.90;;;;;;5075431;28;20199;-71
2022/02/26 12:26:58;;;;;;;9.05;6.82;;;9.70;99.90;;;;;;5075625;28;20664;-71
2022/02/26 12:29:40;;;;;;;8.27;7.50;;;9.30;99.90;;;;;;5075467;28;20195;-70
2022/02/26 12:32:14;;;;;;;8.60;7.40;;;9.90;99.90;;;;;;5075897;28;20619;-70
2022/02/26 12:35:04;;;;;;;8.77;7.63;;;10.60;99.90;;;;;;5075735;28;20569;-71
2022/02/26 12:37:34;;;;;;;31.03;28.43;;;11.70;99.90;;;;;;5075944;28;20578;-71
2022/02/26 12:40:07;;;;;;;10.23;8.80;;;11.80;99.90;;;;;;5076275;28;20586;-70
2022/02/26 12:42:42;;;;;;;9.07;8.17;;;11.30;99.90;;;;;;5075572;28;20647;-70
2022/02/26 12:45:11;;;;;;;19.23;9.00;;;12.40;99.90;;;;;;5075239;28;20663;-70
2022/02/26 12:47:38;;;;;;;14.10;8.60;;;12.50;99.90;;;;;;5076554;28;20676;-71
2022/02/26 12:50:07;;;;;;;13.30;7.50;;;12.00;99.90;;;;;;5075983;28;20583;-71